createdAt,value
2022-08-27T00:00:58.711Z,8.70
2022-08-27T00:03:30.925Z,8.90
2022-08-27T00:06:03.417Z,8.60
2022-08-27T00:08:35.644Z,10.50
2022-08-27T00:11:08.072Z,8.90
2022-08-27T00:13:41.564Z,9.20
2022-08-27T00:16:16.139Z,10.10
2022-08-27T00:18:49.752Z,10.30
2022-08-27T00:21:21.943Z,9.60
2022-08-27T00:23:54.411Z,10.30
2022-08-27T00:26:26.848Z,9.10
2022-08-27T00:28:59.136Z,11.20
2022-08-27T00:31:31.367Z,10.80
2022-08-27T00:34:03.581Z,10.40
2022-08-27T00:36:35.748Z,10.60
2022-08-27T00:39:07.956Z,10.40
2022-08-27T00:41:41.961Z,11.60
2022-08-27T00:44:14.789Z,12.50
2022-08-27T00:46:50.658Z,8.70
2022-08-27T00:49:27.986Z,11.20
2022-08-27T00:52:05.536Z,10.00
2022-08-27T00:54:38.024Z,10.80
2022-08-27T00:57:10.508Z,10.90
2022-08-27T00:59:43.487Z,10.50
2022-08-27T01:02:21.630Z,12.50
2022-08-27T01:04:57.582Z,10.70
2022-08-27T01:07:33.215Z,9.30
2022-08-27T01:10:08.446Z,9.40
2022-08-27T01:12:41.107Z,9.80
2022-08-27T01:15:20.207Z,9.20
2022-08-27T01:17:53.415Z,8.90
2022-08-27T01:20:30.663Z,9.10
2022-08-27T01:23:11.415Z,10.10
2022-08-27T01:25:46.001Z,8.60
2022-08-27T01:28:21.794Z,10.60
2022-08-27T01:30:56.068Z,7.20
2022-08-27T01:33:28.196Z,12.20
2022-08-27T01:36:00.667Z,9.00
2022-08-27T01:38:33.646Z,8.80
2022-08-27T01:41:06.661Z,10.10
2022-08-27T01:43:38.856Z,8.80
2022-08-27T01:46:11.074Z,8.50
2022-08-27T01:48:43.359Z,9.30
2022-08-27T01:51:15.561Z,10.00
2022-08-27T01:53:48.131Z,7.00
2022-08-27T01:56:20.295Z,10.00
2022-08-27T01:58:52.472Z,9.90
2022-08-27T02:01:24.771Z,13.50
2022-08-27T02:03:57.000Z,8.20
2022-08-27T02:06:29.158Z,8.10
2022-08-27T02:09:01.354Z,9.30
2022-08-27T02:11:33.518Z,9.30
2022-08-27T02:14:16.042Z,9.00
2022-08-27T02:16:52.648Z,9.90
2022-08-27T02:19:25.559Z,9.20
2022-08-27T02:22:00.552Z,8.30
2022-08-27T02:24:32.815Z,9.40
2022-08-27T02:27:05.048Z,9.70
2022-08-27T02:29:37.357Z,7.90
2022-08-27T02:32:22.503Z,8.90
2022-08-27T02:35:04.631Z,8.40
2022-08-27T02:37:37.623Z,8.40
2022-08-27T02:40:17.221Z,9.70
2022-08-27T02:42:49.963Z,10.30
2022-08-27T02:45:23.651Z,9.20
2022-08-27T02:47:55.873Z,8.40
2022-08-27T02:50:28.082Z,8.30
2022-08-27T02:53:01.353Z,8.20
2022-08-27T02:55:34.386Z,8.60
2022-08-27T02:58:09.612Z,7.30
2022-08-27T03:00:42.308Z,9.00
2022-08-27T03:03:14.608Z,7.50
2022-08-27T03:05:46.959Z,8.90
2022-08-27T03:08:19.211Z,8.10
2022-08-27T03:10:51.862Z,8.20
2022-08-27T03:13:26.016Z,8.20
2022-08-27T03:15:58.213Z,7.20
2022-08-27T03:18:32.428Z,9.60
2022-08-27T03:21:04.647Z,8.30
2022-08-27T03:23:37.188Z,10.80
2022-08-27T03:26:13.561Z,8.20
2022-08-27T03:28:46.895Z,8.20
2022-08-27T03:31:27.340Z,8.20
2022-08-27T03:34:01.810Z,9.80
2022-08-27T03:36:34.087Z,8.20
2022-08-27T03:39:06.776Z,9.70
2022-08-27T03:41:43.469Z,11.40
2022-08-27T03:44:27.428Z,9.10
2022-08-27T03:47:00.148Z,10.00
2022-08-27T03:49:32.855Z,8.80
2022-08-27T03:52:05.696Z,7.60
2022-08-27T03:54:39.235Z,8.50
2022-08-27T03:57:11.466Z,8.60
2022-08-27T03:59:43.667Z,8.80
2022-08-27T04:02:16.459Z,9.20
2022-08-27T04:04:48.654Z,7.50
2022-08-27T04:07:21.749Z,9.40
2022-08-27T04:09:54.056Z,8.40
2022-08-27T04:12:27.112Z,6.80
2022-08-27T04:14:59.293Z,8.80
2022-08-27T04:17:31.511Z,7.50
2022-08-27T04:20:24.880Z,8.20
2022-08-27T04:22:56.657Z,7.30
2022-08-27T04:25:28.808Z,7.80
2022-08-27T04:28:00.982Z,8.10
2022-08-27T04:30:33.278Z,8.30
2022-08-27T04:33:05.599Z,11.00
2022-08-27T04:35:37.922Z,6.80
2022-08-27T04:38:10.520Z,9.60
2022-08-27T04:41:00.259Z,7.50
2022-08-27T04:43:32.598Z,9.40
2022-08-27T04:46:04.873Z,8.50
2022-08-27T04:48:38.469Z,8.60
2022-08-27T04:51:11.953Z,9.20
2022-08-27T04:53:46.840Z,9.40
2022-08-27T04:56:21.840Z,10.60
2022-08-27T04:58:54.638Z,10.60
2022-08-27T05:01:29.881Z,8.80
2022-08-27T05:04:02.227Z,8.80
2022-08-27T05:06:34.732Z,9.00
2022-08-27T05:09:07.651Z,9.40
2022-08-27T05:11:40.041Z,7.10
2022-08-27T05:14:14.648Z,10.60
2022-08-27T05:16:47.526Z,11.90
2022-08-27T05:19:19.784Z,9.00
2022-08-27T05:21:53.974Z,9.10
2022-08-27T05:24:26.237Z,10.00
2022-08-27T05:26:58.385Z,11.20
2022-08-27T05:29:31.854Z,11.70
2022-08-27T05:32:04.224Z,9.40
2022-08-27T05:34:36.655Z,9.00
2022-08-27T05:37:09.173Z,10.90
2022-08-27T05:39:41.439Z,9.90
2022-08-27T05:42:13.749Z,10.80
2022-08-27T05:44:46.393Z,7.90
2022-08-27T05:47:18.587Z,11.70
2022-08-27T05:49:52.615Z,8.60
2022-08-27T05:52:24.759Z,12.00
2022-08-27T05:54:57.424Z,9.20
2022-08-27T05:57:29.689Z,10.80
2022-08-27T06:00:19.231Z,9.90
2022-08-27T06:02:51.650Z,9.50
2022-08-27T06:05:24.173Z,11.10
2022-08-27T06:07:56.352Z,11.60
2022-08-27T06:10:28.536Z,9.50
2022-08-27T06:13:00.747Z,11.50
2022-08-27T06:15:33.206Z,11.50
2022-08-27T06:18:05.552Z,12.90
2022-08-27T06:20:37.737Z,9.20
2022-08-27T06:23:10.263Z,8.00
2022-08-27T06:25:44.428Z,11.60
2022-08-27T06:28:16.682Z,10.70
2022-08-27T06:30:48.980Z,12.10
2022-08-27T06:33:21.414Z,11.70
2022-08-27T06:35:53.856Z,9.80
2022-08-27T06:38:26.884Z,11.10
2022-08-27T06:40:59.088Z,11.50
2022-08-27T06:43:31.220Z,13.30
2022-08-27T06:46:07.340Z,10.90
2022-08-27T06:48:40.124Z,15.70
2022-08-27T06:51:13.778Z,15.20
2022-08-27T06:53:47.358Z,12.30
2022-08-27T06:56:22.021Z,16.10
2022-08-27T06:58:58.144Z,18.40
2022-08-27T07:01:32.523Z,16.30
2022-08-27T07:04:07.845Z,17.70
2022-08-27T07:06:41.412Z,15.10
2022-08-27T07:09:14.406Z,13.20
2022-08-27T07:11:46.747Z,13.10
2022-08-27T07:14:20.631Z,14.30
2022-08-27T07:16:52.813Z,14.10
2022-08-27T07:19:25.359Z,12.30
2022-08-27T07:21:57.605Z,14.90
2022-08-27T07:24:29.739Z,13.80
2022-08-27T07:27:01.892Z,14.00
2022-08-27T07:29:34.190Z,13.60
2022-08-27T07:32:06.889Z,13.90
2022-08-27T07:34:39.096Z,11.10
2022-08-27T07:37:11.287Z,12.00
2022-08-27T07:39:43.518Z,11.60
2022-08-27T07:42:33.076Z,11.20
2022-08-27T07:45:05.620Z,14.40
2022-08-27T07:47:38.483Z,10.90
2022-08-27T07:50:11.729Z,11.40
2022-08-27T07:52:44.939Z,11.00
2022-08-27T07:55:17.776Z,13.30
2022-08-27T07:57:50.220Z,12.00
2022-08-27T08:00:22.693Z,10.80
2022-08-27T08:02:54.931Z,13.70
2022-08-27T08:05:27.196Z,11.80
2022-08-27T08:07:59.312Z,10.80
2022-08-27T08:10:35.382Z,13.20
2022-08-27T08:13:08.215Z,10.80
2022-08-27T08:15:40.399Z,12.50
2022-08-27T08:18:12.657Z,12.90
2022-08-27T08:20:57.690Z,9.70
2022-08-27T08:23:32.539Z,8.30
2022-08-27T08:26:05.220Z,7.80
2022-08-27T08:28:37.851Z,9.30
2022-08-27T08:31:10.306Z,9.90
2022-08-27T08:33:42.587Z,8.70
2022-08-27T08:36:16.761Z,7.20
2022-08-27T08:38:51.055Z,9.00
2022-08-27T08:41:39.871Z,9.70
2022-08-27T08:44:26.716Z,9.10
2022-08-27T08:47:04.412Z,9.50
2022-08-27T08:49:50.834Z,10.60
2022-08-27T08:52:40.292Z,12.40
2022-08-27T08:55:28.218Z,9.80
2022-08-27T08:58:14.215Z,10.30
2022-08-27T09:00:50.021Z,10.40
2022-08-27T09:03:22.407Z,8.70
2022-08-27T09:06:02.709Z,11.20
2022-08-27T09:08:41.172Z,9.10
2022-08-27T09:11:25.422Z,10.00
2022-08-27T09:14:01.111Z,9.90
2022-08-27T09:16:33.503Z,12.10
2022-08-27T09:19:07.569Z,9.40
2022-08-27T09:21:55.437Z,8.30
2022-08-27T09:24:38.456Z,10.10
2022-08-27T09:27:14.843Z,10.60
2022-08-27T09:29:53.264Z,11.00
2022-08-27T09:32:28.472Z,9.10
2022-08-27T09:35:04.343Z,11.80
2022-08-27T09:37:44.401Z,9.00
2022-08-27T09:40:27.304Z,10.40
2022-08-27T09:43:07.472Z,8.70
2022-08-27T09:45:47.854Z,10.80
2022-08-27T09:48:23.482Z,10.60
2022-08-27T09:50:58.258Z,9.60
2022-08-27T09:53:35.351Z,9.90
2022-08-27T09:56:11.154Z,10.20
2022-08-27T09:58:56.634Z,9.30
2022-08-27T10:01:31.186Z,6.90
2022-08-27T10:04:13.619Z,9.10
2022-08-27T10:06:51.239Z,9.70
2022-08-27T10:09:30.053Z,8.00
2022-08-27T10:12:06.836Z,9.50
2022-08-27T10:14:43.967Z,10.00
2022-08-27T10:17:24.327Z,10.00
2022-08-27T10:20:04.509Z,8.50
2022-08-27T10:22:47.192Z,9.00
2022-08-27T10:25:29.843Z,9.80
2022-08-27T10:28:12.316Z,10.50
2022-08-27T10:30:59.597Z,10.90
2022-08-27T10:33:41.523Z,9.30
2022-08-27T10:36:26.775Z,8.60
2022-08-27T10:39:07.747Z,10.50
2022-08-27T10:41:47.116Z,10.40
2022-08-27T10:44:44.091Z,11.40
2022-08-27T10:47:31.948Z,9.80
2022-08-27T10:50:08.049Z,8.50
2022-08-27T10:52:45.124Z,8.60
2022-08-27T10:55:24.048Z,9.00
2022-08-27T10:58:13.406Z,10.00
2022-08-27T11:00:56.367Z,10.50
2022-08-27T11:03:35.539Z,11.40
2022-08-27T11:06:15.788Z,11.80
2022-08-27T11:08:52.115Z,10.60
2022-08-27T11:14:34.314Z,10.20
2022-08-27T11:17:12.225Z,8.80
2022-08-27T11:19:54.349Z,9.90
2022-08-27T11:22:32.222Z,10.90
2022-08-27T11:25:10.828Z,9.20
2022-08-27T11:27:44.308Z,9.70
2022-08-27T11:30:29.896Z,8.70
2022-08-27T11:33:14.299Z,9.50
2022-08-27T11:35:59.101Z,9.30
2022-08-27T11:38:51.559Z,10.70
2022-08-27T11:41:49.110Z,11.20
2022-08-27T11:44:23.655Z,11.10
2022-08-27T11:49:36.193Z,9.70
2022-08-27T11:52:10.674Z,12.90
2022-08-27T11:54:51.053Z,9.90
2022-08-27T11:57:33.047Z,12.50
2022-08-27T12:00:21.659Z,10.60
2022-08-27T12:03:06.347Z,13.10
2022-08-27T12:05:42.532Z,11.40
2022-08-27T12:08:34.869Z,12.00
2022-08-27T12:11:19.040Z,8.90
2022-08-27T12:14:01.932Z,11.30
2022-08-27T12:16:42.217Z,13.40
2022-08-27T12:19:29.575Z,11.60
2022-08-27T12:22:16.500Z,11.90
2022-08-27T12:24:55.582Z,10.40
2022-08-27T12:27:36.006Z,9.60
2022-08-27T12:30:22.112Z,11.20
2022-08-27T12:32:54.997Z,12.00
2022-08-27T12:35:41.963Z,12.30
2022-08-27T12:38:19.924Z,13.00
2022-08-27T12:40:55.151Z,11.30
2022-08-27T12:43:29.798Z,10.40
2022-08-27T12:46:06.648Z,12.80
2022-08-27T12:48:43.242Z,11.60
2022-08-27T12:51:20.645Z,9.90
2022-08-27T12:53:59.619Z,9.80
2022-08-27T12:56:45.661Z,10.20
2022-08-27T12:59:39.561Z,12.00
2022-08-27T13:02:30.043Z,10.90
2022-08-27T13:05:10.347Z,12.70
2022-08-27T13:07:46.578Z,10.50
2022-08-27T13:10:22.239Z,9.50
2022-08-27T13:13:06.256Z,12.40
2022-08-27T13:15:43.133Z,11.90
2022-08-27T13:18:16.208Z,13.30
2022-08-27T13:20:53.102Z,11.90
2022-08-27T13:23:28.140Z,11.10
2022-08-27T13:26:06.138Z,10.50
2022-08-27T13:28:42.363Z,9.00
2022-08-27T13:31:15.701Z,9.10
2022-08-27T13:33:48.539Z,9.60
2022-08-27T13:36:32.090Z,12.00
2022-08-27T13:39:07.126Z,9.60
2022-08-27T13:41:41.034Z,10.60
2022-08-27T13:44:16.751Z,11.80
2022-08-27T13:46:51.826Z,12.30
2022-08-27T13:49:27.074Z,11.30
2022-08-27T13:52:08.460Z,9.90
2022-08-27T13:54:40.700Z,12.30
2022-08-27T13:57:23.826Z,10.00
2022-08-27T13:59:56.259Z,9.40
2022-08-27T14:02:33.358Z,12.30
2022-08-27T14:05:13.862Z,11.50
2022-08-27T14:07:48.714Z,11.80
2022-08-27T14:13:07.290Z,8.80
2022-08-27T14:15:42.404Z,11.70
2022-08-27T14:18:48.015Z,10.60
2022-08-27T14:23:51.679Z,9.80
2022-08-27T14:26:23.947Z,10.60
2022-08-27T14:28:57.138Z,9.50
2022-08-27T14:31:30.083Z,10.40
2022-08-27T14:34:02.600Z,14.50
2022-08-27T14:36:38.668Z,8.60
2022-08-27T14:39:11.911Z,8.60
2022-08-27T14:41:44.207Z,11.50
2022-08-27T14:44:17.022Z,11.20
2022-08-27T14:46:49.587Z,10.40
2022-08-27T14:49:27.445Z,10.90
2022-08-27T14:51:59.739Z,9.70
2022-08-27T14:54:33.335Z,10.00
2022-08-27T14:57:07.365Z,10.20
2022-08-27T14:59:40.748Z,9.80
2022-08-27T15:02:15.090Z,11.00
2022-08-27T15:04:48.046Z,9.40
2022-08-27T15:07:23.508Z,11.10
2022-08-27T15:09:56.098Z,9.60
2022-08-27T15:12:28.562Z,9.80
2022-08-27T15:15:00.815Z,9.60
2022-08-27T15:17:34.393Z,8.80
2022-08-27T15:20:11.834Z,12.50
2022-08-27T15:22:53.992Z,8.70
2022-08-27T15:25:26.798Z,12.00
2022-08-27T15:27:59.083Z,10.70
2022-08-27T15:30:31.914Z,10.80
2022-08-27T15:33:05.319Z,9.70
2022-08-27T15:35:37.751Z,10.70
2022-08-27T15:38:11.006Z,11.80
2022-08-27T15:40:43.775Z,9.20
2022-08-27T15:43:18.184Z,8.50
2022-08-27T15:45:50.340Z,10.40
2022-08-27T15:48:22.566Z,12.10
2022-08-27T15:50:55.608Z,11.30
2022-08-27T15:53:27.900Z,13.40
2022-08-27T15:56:00.090Z,10.70
2022-08-27T15:58:32.547Z,14.70
2022-08-27T16:01:10.664Z,13.20
2022-08-27T16:03:45.173Z,10.70
2022-08-27T16:06:19.613Z,13.90
2022-08-27T16:08:52.176Z,11.40
2022-08-27T16:11:24.871Z,11.40
2022-08-27T16:13:57.166Z,14.40
2022-08-27T16:16:33.404Z,10.80
2022-08-27T16:19:08.931Z,11.00
2022-08-27T16:21:41.423Z,10.60
2022-08-27T16:24:14.082Z,10.00
2022-08-27T16:26:46.591Z,14.10
2022-08-27T16:29:19.180Z,10.40
2022-08-27T16:31:51.439Z,9.80
2022-08-27T16:34:27.168Z,13.70
2022-08-27T16:37:00.278Z,12.10
2022-08-27T16:39:35.417Z,10.80
2022-08-27T16:42:10.947Z,10.90
2022-08-27T16:44:43.072Z,12.00
2022-08-27T16:47:15.260Z,10.30
2022-08-27T16:50:05.046Z,10.50
2022-08-27T16:52:37.379Z,9.70
2022-08-27T16:55:11.930Z,9.90
2022-08-27T16:57:44.079Z,10.90
2022-08-27T17:00:16.717Z,11.40
2022-08-27T17:02:49.015Z,9.00
2022-08-27T17:05:33.980Z,9.10
2022-08-27T17:08:11.703Z,10.40
2022-08-27T17:10:48.716Z,11.80
2022-08-27T17:13:28.281Z,10.00
2022-08-27T17:16:02.575Z,10.10
2022-08-27T17:18:35.375Z,10.60
2022-08-27T17:21:08.058Z,8.80
2022-08-27T17:23:43.273Z,11.30
2022-08-27T17:26:17.316Z,10.00
2022-08-27T17:28:49.581Z,11.90
2022-08-27T17:31:28.059Z,13.20
2022-08-27T17:34:02.527Z,8.90
2022-08-27T17:36:35.193Z,11.40
2022-08-27T17:39:07.995Z,12.40
2022-08-27T17:41:43.424Z,10.90
2022-08-27T17:44:25.982Z,12.90
2022-08-27T17:47:00.451Z,12.30
2022-08-27T17:49:33.006Z,12.00
2022-08-27T17:52:09.759Z,11.30
2022-08-27T17:54:44.838Z,13.30
2022-08-27T17:57:20.052Z,13.20
2022-08-27T17:59:53.583Z,13.00
2022-08-27T18:02:31.715Z,10.40
2022-08-27T18:05:04.804Z,11.50
2022-08-27T18:07:39.982Z,12.90
2022-08-27T18:10:14.847Z,14.80
2022-08-27T18:12:47.726Z,13.90
2022-08-27T18:15:23.042Z,12.50
2022-08-27T18:17:55.790Z,13.80
2022-08-27T18:20:30.351Z,13.40
2022-08-27T18:23:02.867Z,13.90
2022-08-27T18:25:36.850Z,15.40
2022-08-27T18:28:11.464Z,14.80
2022-08-27T18:30:46.308Z,15.40
2022-08-27T18:33:18.759Z,15.20
2022-08-27T18:35:51.974Z,14.20
2022-08-27T18:38:24.316Z,15.20
2022-08-27T18:40:57.749Z,15.30
2022-08-27T18:43:35.069Z,14.40
2022-08-27T18:46:07.880Z,13.80
2022-08-27T18:48:40.304Z,16.40
2022-08-27T18:51:15.914Z,15.80
2022-08-27T18:53:49.293Z,17.30
2022-08-27T18:56:22.696Z,15.50
2022-08-27T18:58:54.834Z,17.30
2022-08-27T19:01:29.132Z,15.80
2022-08-27T19:04:01.489Z,13.80
2022-08-27T19:06:34.262Z,15.30
2022-08-27T19:09:07.510Z,17.30
2022-08-27T19:11:39.700Z,16.30
2022-08-27T19:14:11.837Z,16.60
2022-08-27T19:16:46.900Z,14.20
2022-08-27T19:21:51.781Z,12.60
2022-08-27T19:24:24.678Z,14.90
2022-08-27T19:26:57.088Z,16.90
2022-08-27T19:29:29.293Z,15.20
2022-08-27T19:32:01.503Z,18.20
2022-08-27T19:34:33.756Z,18.30
2022-08-27T19:37:08.111Z,16.70
2022-08-27T19:39:40.959Z,17.00
2022-08-27T19:42:13.123Z,17.70
2022-08-27T19:44:45.770Z,18.00
2022-08-27T19:47:25.347Z,18.30
2022-08-27T19:49:58.210Z,18.20
2022-08-27T19:52:30.599Z,20.10
2022-08-27T19:55:13.746Z,25.30
2022-08-27T19:57:48.141Z,19.10
2022-08-27T20:00:24.715Z,19.30
2022-08-27T20:03:00.175Z,18.30
2022-08-27T20:05:32.557Z,21.30
2022-08-27T20:08:05.921Z,19.50
2022-08-27T20:10:39.029Z,27.40
2022-08-27T20:13:11.255Z,25.40
2022-08-27T20:15:43.674Z,24.10
2022-08-27T20:20:49.263Z,23.10
2022-08-27T20:23:21.425Z,23.50
2022-08-27T20:26:00.477Z,22.50
2022-08-27T20:28:39.408Z,23.70
2022-08-27T20:31:12.764Z,23.70
2022-08-27T20:33:45.386Z,23.00
2022-08-27T20:36:17.639Z,24.10
2022-08-27T20:38:49.803Z,23.70
2022-08-27T20:41:22.446Z,24.00
2022-08-27T20:43:54.766Z,22.10
2022-08-27T20:46:30.674Z,23.20
2022-08-27T20:49:03.313Z,20.40
2022-08-27T20:51:51.311Z,21.20
2022-08-27T20:54:27.734Z,21.70
2022-08-27T20:57:00.207Z,19.00
2022-08-27T20:59:50.371Z,21.70
2022-08-27T21:02:26.627Z,20.00
2022-08-27T21:05:06.485Z,21.10
2022-08-27T21:07:38.736Z,20.10
2022-08-27T21:10:12.668Z,20.00
2022-08-27T21:12:45.494Z,19.70
2022-08-27T21:15:17.942Z,20.40
2022-08-27T21:17:50.077Z,19.90
2022-08-27T21:20:22.468Z,22.00
2022-08-27T21:22:56.203Z,17.40
2022-08-27T21:25:29.221Z,21.20
2022-08-27T21:28:03.687Z,21.70
2022-08-27T21:30:36.190Z,21.30
2022-08-27T21:33:08.475Z,19.70
2022-08-27T21:35:40.711Z,21.50
2022-08-27T21:38:13.348Z,20.20
2022-08-27T21:40:45.875Z,18.70
2022-08-27T21:43:18.021Z,21.60
2022-08-27T21:45:53.659Z,21.20
2022-08-27T21:48:26.844Z,22.00
2022-08-27T21:50:59.160Z,20.10
2022-08-27T21:53:32.127Z,21.80
2022-08-27T21:56:04.639Z,19.30
2022-08-27T21:58:37.147Z,19.50
2022-08-27T22:01:09.890Z,17.40
2022-08-27T22:03:46.910Z,19.30
2022-08-27T22:06:19.807Z,20.70
2022-08-27T22:08:52.036Z,19.80
2022-08-27T22:11:24.663Z,20.70
2022-08-27T22:13:59.599Z,17.90
2022-08-27T22:16:31.752Z,17.00
2022-08-27T22:19:03.940Z,19.80
2022-08-27T22:21:36.496Z,21.60
2022-08-27T22:24:09.760Z,20.30
2022-08-27T22:26:42.043Z,19.80
2022-08-27T22:29:16.352Z,19.80
2022-08-27T22:31:48.676Z,18.00
2022-08-27T22:34:21.943Z,18.20
2022-08-27T22:36:54.148Z,19.50
2022-08-27T22:39:26.811Z,15.80
2022-08-27T22:42:00.329Z,19.50
2022-08-27T22:44:32.678Z,19.60
2022-08-27T22:47:05.094Z,17.60
2022-08-27T22:49:37.615Z,18.30
2022-08-27T22:52:10.007Z,16.70
2022-08-27T22:54:42.256Z,18.10
2022-08-27T22:57:14.811Z,20.60
2022-08-27T22:59:47.121Z,19.30
2022-08-27T23:02:19.235Z,20.80
2022-08-27T23:04:55.542Z,17.70
2022-08-27T23:07:28.285Z,16.20
2022-08-27T23:10:01.111Z,14.70
2022-08-27T23:12:34.307Z,18.40
2022-08-27T23:15:12.409Z,17.80
2022-08-27T23:17:44.628Z,17.90
2022-08-27T23:20:17.731Z,18.90
2022-08-27T23:22:50.512Z,17.40
2022-08-27T23:25:43.393Z,17.00
2022-08-27T23:28:16.864Z,17.70
2022-08-27T23:30:49.527Z,13.70
2022-08-27T23:33:22.080Z,16.50
2022-08-27T23:35:54.250Z,17.50
2022-08-27T23:38:26.637Z,15.80
2022-08-27T23:40:58.991Z,16.80
2022-08-27T23:43:32.466Z,16.40
2022-08-27T23:46:05.012Z,18.30
2022-08-27T23:48:39.482Z,16.40
2022-08-27T23:51:12.215Z,15.80
2022-08-27T23:53:44.396Z,18.00
2022-08-27T23:56:16.546Z,16.80
2022-08-27T23:58:48.974Z,18.50
